createdAt,value
2023-02-02T00:01:34.445Z,98870.75
2023-02-02T00:04:03.173Z,98866.31
2023-02-02T00:06:33.197Z,98875.00
2023-02-02T00:09:03.484Z,98879.84
2023-02-02T00:11:32.163Z,98872.06
2023-02-02T00:14:01.096Z,98887.03
2023-02-02T00:16:42.799Z,98883.38
2023-02-02T00:19:15.266Z,98888.41
2023-02-02T00:21:44.710Z,98881.75
2023-02-02T00:24:14.720Z,98884.09
2023-02-02T00:26:46.430Z,98883.59
2023-02-02T00:29:17.988Z,98873.41
2023-02-02T00:31:48.868Z,98878.34
2023-02-02T00:34:18.418Z,98880.25
2023-02-02T00:36:49.398Z,98885.84
2023-02-02T00:39:20.063Z,98879.03
2023-02-02T00:41:49.504Z,98877.47
2023-02-02T00:44:35.481Z,98881.56
2023-02-02T00:47:06.185Z,98879.38
2023-02-02T00:49:35.174Z,98878.00
2023-02-02T00:52:03.796Z,98875.34
2023-02-02T00:54:32.869Z,98881.38
2023-02-02T00:57:01.400Z,98879.63
2023-02-02T00:59:30.084Z,98891.44
2023-02-02T01:01:58.678Z,98884.56
2023-02-02T01:04:29.715Z,98885.50
2023-02-02T01:06:59.052Z,98885.38
2023-02-02T01:09:27.548Z,98883.31
2023-02-02T01:11:56.321Z,98889.41
2023-02-02T01:14:27.292Z,98895.44
2023-02-02T01:16:57.587Z,98881.75
2023-02-02T01:19:29.337Z,98895.63
2023-02-02T01:21:58.089Z,98887.78
2023-02-02T01:24:26.692Z,98885.84
2023-02-02T01:26:55.304Z,98886.94
2023-02-02T01:29:23.978Z,98884.28
2023-02-02T01:31:52.901Z,98886.38
2023-02-02T01:34:21.519Z,98893.34
2023-02-02T01:36:51.650Z,98888.03
2023-02-02T01:39:21.632Z,98888.03
2023-02-02T01:41:50.710Z,98891.06
2023-02-02T01:44:56.325Z,98899.91
2023-02-02T01:47:28.344Z,98907.38
2023-02-02T01:49:57.768Z,98899.22
2023-02-02T01:52:31.017Z,98909.00
2023-02-02T01:55:04.721Z,98909.09
2023-02-02T01:57:40.065Z,98904.16
2023-02-02T02:00:12.909Z,98902.34
2023-02-02T02:02:49.816Z,98909.09
2023-02-02T02:05:27.773Z,98907.44
2023-02-02T02:08:04.422Z,98912.72
2023-02-02T02:10:33.579Z,98910.19
2023-02-02T02:13:02.324Z,98918.97
2023-02-02T02:15:54.523Z,98913.31
2023-02-02T02:18:33.202Z,98924.28
2023-02-02T02:21:52.876Z,98925.00
2023-02-02T02:25:13.972Z,98923.81
2023-02-02T02:28:14.897Z,98923.56
2023-02-02T02:30:59.169Z,98932.47
2023-02-02T02:33:37.032Z,98933.44
2023-02-02T02:36:16.116Z,98936.22
2023-02-02T02:38:52.177Z,98931.28
2023-02-02T02:41:23.722Z,98935.47
2023-02-02T02:43:57.705Z,98944.97
2023-02-02T02:46:28.213Z,98941.25
2023-02-02T02:49:01.578Z,98940.91
2023-02-02T02:51:51.605Z,98948.69
2023-02-02T02:54:43.202Z,98951.00
2023-02-02T02:57:27.468Z,98946.19
2023-02-02T03:00:05.393Z,98954.38
2023-02-02T03:02:42.347Z,98947.13
2023-02-02T03:05:26.103Z,98950.41
2023-02-02T03:08:05.242Z,98957.50
2023-02-02T03:10:35.759Z,98959.16
2023-02-02T03:13:10.032Z,98959.38
2023-02-02T03:15:38.860Z,98954.34
2023-02-02T03:18:07.541Z,98956.50
2023-02-02T03:20:37.717Z,98956.50
2023-02-02T03:23:06.366Z,98959.75
2023-02-02T03:25:35.122Z,98958.78
2023-02-02T03:28:05.731Z,98966.75
2023-02-02T03:30:34.921Z,98972.88
2023-02-02T03:33:03.644Z,98975.50
2023-02-02T03:35:32.152Z,98976.34
2023-02-02T03:38:02.134Z,98976.09
2023-02-02T03:40:31.236Z,98973.94
2023-02-02T03:42:59.785Z,98972.97
2023-02-02T03:45:29.435Z,98982.84
2023-02-02T03:47:58.025Z,98982.00
2023-02-02T03:50:26.633Z,98984.03
2023-02-02T03:52:56.068Z,98983.91
2023-02-02T03:55:26.247Z,98983.22
2023-02-02T03:57:55.140Z,98979.00
2023-02-02T04:00:23.951Z,98985.94
2023-02-02T04:02:52.561Z,98988.50
2023-02-02T04:05:21.176Z,98991.84
2023-02-02T04:07:49.646Z,98982.47
2023-02-02T04:10:19.081Z,98988.16
2023-02-02T04:12:49.100Z,98994.63
2023-02-02T04:15:17.959Z,98999.81
2023-02-02T04:17:46.518Z,99001.50
2023-02-02T04:20:15.074Z,99004.38
2023-02-02T04:22:43.727Z,99002.56
2023-02-02T04:25:12.518Z,99001.13
2023-02-02T04:27:41.223Z,99003.19
2023-02-02T04:30:13.063Z,99006.53
2023-02-02T04:32:41.611Z,99001.97
2023-02-02T04:35:10.580Z,99012.81
2023-02-02T04:37:39.187Z,99000.50
2023-02-02T04:40:08.922Z,99003.91
2023-02-02T04:42:37.528Z,99001.13
2023-02-02T04:45:06.949Z,99009.22
2023-02-02T04:47:37.004Z,99008.94
2023-02-02T04:50:06.353Z,99008.25
2023-02-02T04:52:35.339Z,99017.84
2023-02-02T04:55:04.099Z,99016.41
2023-02-02T04:57:32.719Z,99026.78
2023-02-02T05:00:01.211Z,99021.69
2023-02-02T05:02:29.850Z,99025.69
2023-02-02T05:04:59.837Z,99032.41
2023-02-02T05:07:28.361Z,99034.47
2023-02-02T05:09:56.905Z,99029.53
2023-02-02T05:12:25.559Z,99030.00
2023-02-02T05:14:53.996Z,99030.13
2023-02-02T05:17:22.527Z,99042.19
2023-02-02T05:19:51.075Z,99040.13
2023-02-02T05:22:21.112Z,99042.66
2023-02-02T05:24:49.566Z,99044.38
2023-02-02T05:27:18.154Z,99048.75
2023-02-02T05:29:48.720Z,99045.47
2023-02-02T05:32:17.419Z,99050.25
2023-02-02T05:34:45.928Z,99054.81
2023-02-02T05:37:14.626Z,99060.75
2023-02-02T05:39:44.629Z,99061.59
2023-02-02T05:42:13.140Z,99066.72
2023-02-02T05:44:41.656Z,99072.41
2023-02-02T05:47:10.983Z,99066.00
2023-02-02T05:49:39.432Z,99074.66
2023-02-02T05:52:09.518Z,99069.72
2023-02-02T05:54:38.042Z,99075.34
2023-02-02T05:57:07.946Z,99082.13
2023-02-02T05:59:36.498Z,99079.34
2023-02-02T06:02:05.061Z,99089.31
2023-02-02T06:04:33.588Z,99091.00
2023-02-02T06:07:02.201Z,99091.84
2023-02-02T06:09:30.698Z,99098.00
2023-02-02T06:11:59.245Z,99093.88
2023-02-02T06:14:29.474Z,99102.56
2023-02-02T06:16:58.260Z,99113.03
2023-02-02T06:19:27.010Z,99118.44
2023-02-02T06:21:55.607Z,99111.56
2023-02-02T06:24:24.691Z,99117.09
2023-02-02T06:26:53.323Z,99111.06
2023-02-02T06:29:21.930Z,99115.88
2023-02-02T06:31:52.093Z,99113.56
2023-02-02T06:34:20.903Z,99122.47
2023-02-02T06:36:49.461Z,99128.63
2023-02-02T06:39:18.003Z,99119.09
2023-02-02T06:41:48.486Z,99121.50
2023-02-02T06:44:17.043Z,99123.31
2023-02-02T06:46:45.382Z,99122.38
2023-02-02T06:49:15.243Z,99130.94
2023-02-02T06:51:46.033Z,99128.03
2023-02-02T06:54:14.838Z,99127.72
2023-02-02T06:56:44.040Z,99134.72
2023-02-02T06:59:12.548Z,99142.59
2023-02-02T07:01:40.970Z,99136.47
2023-02-02T07:04:09.473Z,99147.31
2023-02-02T07:06:41.198Z,99139.47
2023-02-02T07:09:09.810Z,99149.59
2023-02-02T07:11:40.760Z,99151.75
2023-02-02T07:14:12.184Z,99149.03
2023-02-02T07:16:40.640Z,99147.69
2023-02-02T07:19:09.550Z,99155.94
2023-02-02T07:21:39.593Z,99165.66
2023-02-02T07:24:09.133Z,99165.91
2023-02-02T07:26:37.687Z,99172.88
2023-02-02T07:29:06.935Z,99174.19
2023-02-02T07:31:36.784Z,99168.38
2023-02-02T07:34:05.847Z,99174.44
2023-02-02T07:36:34.637Z,99173.72
2023-02-02T07:39:05.962Z,99180.72
2023-02-02T07:41:36.540Z,99180.72
2023-02-02T07:44:06.315Z,99190.84
2023-02-02T07:46:35.056Z,99191.06
2023-02-02T07:49:04.635Z,99197.59
2023-02-02T07:51:33.197Z,99194.38
2023-02-02T07:54:01.768Z,99196.63
2023-02-02T07:56:31.855Z,99199.34
2023-02-02T07:59:00.819Z,99194.88
2023-02-02T08:01:30.301Z,99191.31
2023-02-02T08:04:01.739Z,99205.63
2023-02-02T08:06:32.797Z,99210.53
2023-02-02T08:09:02.423Z,99212.34
2023-02-02T08:11:33.112Z,99206.81
2023-02-02T08:14:02.913Z,99207.28
2023-02-02T08:16:33.381Z,99213.56
2023-02-02T08:19:02.751Z,99214.41
2023-02-02T08:21:33.693Z,99225.16
2023-02-02T08:24:04.743Z,99221.19
2023-02-02T08:26:35.008Z,99230.81
2023-02-02T08:29:07.538Z,99231.06
2023-02-02T08:31:38.125Z,99238.56
2023-02-02T08:34:07.094Z,99225.53
2023-02-02T08:36:36.513Z,99237.34
2023-02-02T08:39:07.247Z,99235.22
2023-02-02T08:41:37.927Z,99242.16
2023-02-02T08:44:09.369Z,99242.47
2023-02-02T08:46:40.245Z,99246.09
2023-02-02T08:49:11.105Z,99254.25
2023-02-02T08:51:39.826Z,99263.19
2023-02-02T08:54:08.411Z,99264.59
2023-02-02T08:56:38.595Z,99267.50
2023-02-02T08:59:08.013Z,99273.00
2023-02-02T09:01:37.024Z,99268.25
2023-02-02T09:04:07.112Z,99272.78
2023-02-02T09:06:37.263Z,99274.22
2023-02-02T09:09:07.711Z,99285.34
2023-02-02T09:11:38.107Z,99286.06
2023-02-02T09:14:07.646Z,99288.00
2023-02-02T09:16:37.163Z,99288.84
2023-02-02T09:19:06.931Z,99294.31
2023-02-02T09:21:37.485Z,99293.25
2023-02-02T09:24:11.325Z,99301.34
2023-02-02T09:26:41.922Z,99294.91
2023-02-02T09:29:14.125Z,99304.78
2023-02-02T09:31:43.468Z,99305.50
2023-02-02T09:34:13.854Z,99300.13
2023-02-02T09:36:43.937Z,99306.13
2023-02-02T09:39:15.206Z,99312.34
2023-02-02T09:42:20.287Z,99316.34
2023-02-02T09:45:10.049Z,99314.53
2023-02-02T09:47:55.148Z,99317.66
2023-02-02T09:50:43.498Z,99316.94
2023-02-02T09:53:25.729Z,99327.38
2023-02-02T09:55:57.287Z,99323.38
2023-02-02T09:58:32.599Z,99329.84
2023-02-02T10:01:06.611Z,99330.81
2023-02-02T10:03:39.298Z,99334.72
2023-02-02T10:06:17.997Z,99338.72
2023-02-02T10:08:52.440Z,99339.03
2023-02-02T10:11:33.050Z,99345.16
2023-02-02T10:14:09.182Z,99349.72
2023-02-02T10:16:41.164Z,99348.19
2023-02-02T10:19:13.857Z,99344.47
2023-02-02T10:21:48.080Z,99347.75
2023-02-02T10:24:21.346Z,99351.13
2023-02-02T10:26:52.142Z,99359.91
2023-02-02T10:29:48.043Z,99358.56
2023-02-02T10:32:24.047Z,99367.38
2023-02-02T10:35:14.637Z,99365.28
2023-02-02T10:37:51.849Z,99374.56
2023-02-02T10:40:34.505Z,99367.19
2023-02-02T10:43:51.308Z,99375.59
2023-02-02T10:46:25.771Z,99374.22
2023-02-02T10:49:12.656Z,99380.66
2023-02-02T10:51:41.672Z,99386.63
2023-02-02T10:54:27.535Z,99380.38
2023-02-02T10:57:02.214Z,99391.50
2023-02-02T10:59:34.379Z,99388.09
2023-02-02T11:02:20.120Z,99385.72
2023-02-02T11:05:07.083Z,99398.69
2023-02-02T11:07:37.585Z,99404.00
2023-02-02T11:10:06.624Z,99396.28
2023-02-02T11:12:38.237Z,99409.50
2023-02-02T11:15:10.908Z,99406.22
2023-02-02T11:17:41.177Z,99415.66
2023-02-02T11:20:25.830Z,99421.16
2023-02-02T11:23:08.469Z,99419.88
2023-02-02T11:25:39.976Z,99426.03
2023-02-02T11:28:19.167Z,99430.56
2023-02-02T11:30:52.700Z,99440.34
2023-02-02T11:33:29.451Z,99439.19
2023-02-02T11:35:59.914Z,99436.09
2023-02-02T11:38:28.963Z,99434.63
2023-02-02T11:41:04.045Z,99448.50
2023-02-02T11:43:36.568Z,99450.41
2023-02-02T11:46:08.174Z,99452.31
2023-02-02T11:48:40.373Z,99453.91
2023-02-02T11:51:09.689Z,99467.56
2023-02-02T11:53:44.226Z,99464.19
2023-02-02T11:56:21.336Z,99469.44
2023-02-02T11:58:51.000Z,99474.34
2023-02-02T12:01:26.353Z,99470.84
2023-02-02T12:03:58.067Z,99477.34
2023-02-02T12:06:28.617Z,99473.94
2023-02-02T12:09:01.533Z,99481.97
2023-02-02T12:11:41.967Z,99478.19
2023-02-02T12:14:26.489Z,99484.94
2023-02-02T12:17:07.571Z,99493.00
2023-02-02T12:19:57.817Z,99492.69
2023-02-02T12:22:42.783Z,99500.31
2023-02-02T12:25:36.962Z,99509.31
2023-02-02T12:28:16.734Z,99503.84
2023-02-02T12:30:56.559Z,99507.84
2023-02-02T12:33:36.611Z,99510.38
2023-02-02T12:36:30.133Z,99515.13
2023-02-02T12:39:17.845Z,99517.38
2023-02-02T12:42:13.657Z,99521.81
2023-02-02T12:44:53.691Z,99520.78
2023-02-02T12:47:29.490Z,99529.97
2023-02-02T12:50:31.429Z,99533.38
2023-02-02T12:53:27.568Z,99537.69
2023-02-02T12:56:05.969Z,99543.56
2023-02-02T12:58:40.465Z,99548.09
2023-02-02T13:01:20.350Z,99550.00
2023-02-02T13:04:08.024Z,99555.09
2023-02-02T13:09:52.791Z,99561.97
2023-02-02T13:12:25.266Z,99565.06
2023-02-02T13:14:57.780Z,99568.84
2023-02-02T13:17:30.901Z,99570.75
2023-02-02T13:20:04.675Z,99576.06
2023-02-02T13:22:37.697Z,99578.63
2023-02-02T13:25:16.129Z,99581.34
2023-02-02T13:27:45.600Z,99591.94
2023-02-02T13:30:25.083Z,99594.50
2023-02-02T13:32:56.417Z,99598.75
2023-02-02T13:35:30.051Z,99605.31
2023-02-02T13:38:06.254Z,99612.28
2023-02-02T13:40:39.748Z,99610.78
2023-02-02T13:43:24.012Z,99617.81
2023-02-02T13:46:02.404Z,99622.88
2023-02-02T13:48:40.109Z,99627.72
2023-02-02T13:51:27.375Z,99630.28
2023-02-02T13:54:32.433Z,99634.06
2023-02-02T13:57:13.533Z,99648.28
2023-02-02T14:00:02.142Z,99648.50
2023-02-02T14:02:41.208Z,99653.56
2023-02-02T14:05:22.123Z,99660.69
2023-02-02T14:07:58.211Z,99653.56
2023-02-02T14:10:31.772Z,99658.88
2023-02-02T14:13:33.451Z,99672.13
2023-02-02T14:16:06.738Z,99676.56
2023-02-02T14:19:03.083Z,99677.50
2023-02-02T14:22:03.853Z,99685.75
2023-02-02T14:24:50.168Z,99698.25
2023-02-02T14:27:42.331Z,99703.56
2023-02-02T14:30:27.133Z,99714.72
2023-02-02T14:33:15.955Z,99713.00
2023-02-02T14:36:03.013Z,99716.31
2023-02-02T14:39:12.510Z,99736.94
2023-02-02T14:42:19.731Z,99738.94
2023-02-02T14:45:28.136Z,99746.69
2023-02-02T14:48:00.405Z,99750.69
2023-02-02T14:50:42.132Z,99747.06
2023-02-02T14:53:23.547Z,99758.06
2023-02-02T14:55:59.526Z,99760.72
2023-02-02T14:58:32.922Z,99769.50
2023-02-02T15:01:14.857Z,99767.78
2023-02-02T15:03:56.238Z,99774.66
2023-02-02T15:06:42.915Z,99784.59
2023-02-02T15:09:37.686Z,99783.97
2023-02-02T15:12:21.795Z,99786.59
2023-02-02T15:14:57.523Z,99797.47
2023-02-02T15:17:35.592Z,99794.44
2023-02-02T15:20:13.979Z,99801.72
2023-02-02T15:22:47.830Z,99809.66
2023-02-02T15:25:23.339Z,99817.50
2023-02-02T15:28:00.352Z,99825.63
2023-02-02T15:30:33.733Z,99825.72
2023-02-02T15:33:13.332Z,99829.31
2023-02-02T15:35:42.690Z,99838.28
2023-02-02T15:38:17.502Z,99851.31
2023-02-02T15:40:46.287Z,99850.69
2023-02-02T15:43:17.858Z,99855.78
2023-02-02T15:45:49.067Z,99855.78
2023-02-02T15:48:25.380Z,99860.88
2023-02-02T15:50:58.371Z,99860.31
2023-02-02T15:53:29.128Z,99871.00
2023-02-02T15:55:58.558Z,99872.03
2023-02-02T15:58:30.356Z,99883.47
2023-02-02T16:01:07.392Z,99887.16
2023-02-02T16:03:44.368Z,99890.16
2023-02-02T16:06:13.175Z,99895.53
2023-02-02T16:08:42.396Z,99901.03
2023-02-02T16:11:13.736Z,99908.19
2023-02-02T16:13:44.069Z,99902.44
2023-02-02T16:16:27.322Z,99914.91
2023-02-02T16:19:20.844Z,99918.47
2023-02-02T16:21:55.139Z,99922.66
2023-02-02T16:24:26.211Z,99924.19
2023-02-02T16:26:58.190Z,99930.59
2023-02-02T16:29:28.373Z,99938.25
2023-02-02T16:31:58.578Z,99945.50
2023-02-02T16:34:47.378Z,99944.59
2023-02-02T16:37:20.499Z,99948.34
2023-02-02T16:39:49.248Z,99964.41
2023-02-02T16:42:26.020Z,99965.06
2023-02-02T16:44:55.698Z,99968.75
2023-02-02T16:47:39.074Z,99971.75
2023-02-02T16:50:29.916Z,99986.69
2023-02-02T16:53:04.038Z,99985.25
2023-02-02T16:55:49.471Z,99987.31
2023-02-02T16:58:22.975Z,99997.13
2023-02-02T17:01:13.653Z,100004.41
2023-02-02T17:03:51.708Z,100004.41
2023-02-02T17:06:41.667Z,100014.44
2023-02-02T17:09:35.980Z,100019.22
2023-02-02T17:12:14.316Z,100016.84
2023-02-02T17:14:53.562Z,100027.50
2023-02-02T17:17:22.402Z,100030.41
2023-02-02T17:19:51.224Z,100028.63
2023-02-02T17:22:24.571Z,100040.91
2023-02-02T17:24:53.955Z,100043.91
2023-02-02T17:27:28.945Z,100044.31
2023-02-02T17:29:58.249Z,100047.88
2023-02-02T17:32:27.104Z,100058.63
2023-02-02T17:34:55.924Z,100063.59
2023-02-02T17:37:25.981Z,100077.31
2023-02-02T17:39:54.461Z,100071.28
2023-02-02T17:42:26.602Z,100075.44
2023-02-02T17:44:55.208Z,100078.25
2023-02-02T17:47:23.945Z,100087.56
2023-02-02T17:49:52.492Z,100089.66
2023-02-02T17:52:21.001Z,100091.03
2023-02-02T17:54:51.223Z,100098.03
2023-02-02T17:57:20.263Z,100099.75
2023-02-02T17:59:48.768Z,100106.72
2023-02-02T18:02:18.364Z,100108.22
2023-02-02T18:04:46.833Z,100117.19
2023-02-02T18:07:15.955Z,100118.66
2023-02-02T18:09:44.340Z,100117.88
2023-02-02T18:12:14.373Z,100117.94
2023-02-02T18:14:42.917Z,100128.00
2023-02-02T18:17:11.396Z,100134.47
2023-02-02T18:19:45.048Z,100133.53
2023-02-02T18:22:13.861Z,100149.84
2023-02-02T18:24:42.738Z,100142.09
2023-02-02T18:27:11.218Z,100152.34
2023-02-02T18:29:41.137Z,100157.88
2023-02-02T18:32:09.985Z,100157.78
2023-02-02T18:34:38.627Z,100166.81
2023-02-02T18:37:07.018Z,100164.94
2023-02-02T18:39:35.731Z,100168.66
2023-02-02T18:42:04.279Z,100174.34
2023-02-02T18:44:41.177Z,100178.94
2023-02-02T18:47:11.077Z,100182.03
2023-02-02T18:49:39.512Z,100184.91
2023-02-02T18:52:08.236Z,100190.19
2023-02-02T18:54:36.970Z,100197.19
2023-02-02T18:57:05.461Z,100198.81
2023-02-02T18:59:36.148Z,100196.19
2023-02-02T19:02:04.640Z,100199.97
2023-02-02T19:04:35.211Z,100209.06
2023-02-02T19:07:20.932Z,100214.34
2023-02-02T19:09:49.436Z,100218.97
2023-02-02T19:12:17.948Z,100217.16
2023-02-02T19:14:46.802Z,100222.38
2023-02-02T19:17:22.358Z,100232.22
2023-02-02T19:19:52.397Z,100235.66
2023-02-02T19:23:15.043Z,100241.00
2023-02-02T19:26:09.140Z,100240.16
2023-02-02T19:28:40.914Z,100250.88
2023-02-02T19:31:15.392Z,100247.22
2023-02-02T19:33:47.364Z,100251.66
2023-02-02T19:36:19.313Z,100262.53
2023-02-02T19:38:49.155Z,100265.16
2023-02-02T19:41:21.052Z,100276.81
2023-02-02T19:43:50.336Z,100275.81
2023-02-02T19:46:22.599Z,100277.69
2023-02-02T19:48:54.460Z,100279.47
2023-02-02T19:51:41.992Z,100278.59
2023-02-02T19:54:29.788Z,100278.75
2023-02-02T19:57:00.318Z,100279.22
2023-02-02T19:59:35.980Z,100274.31
2023-02-02T20:02:39.334Z,100276.94
2023-02-02T20:05:18.517Z,100280.69
2023-02-02T20:07:49.408Z,100275.69
2023-02-02T20:10:22.607Z,100290.47
2023-02-02T20:12:51.997Z,100290.69
2023-02-02T20:15:30.031Z,100299.25
2023-02-02T20:18:01.445Z,100296.53
2023-02-02T20:20:35.937Z,100303.75
2023-02-02T20:23:18.521Z,100299.13
2023-02-02T20:25:46.959Z,100298.13
2023-02-02T20:28:31.407Z,100309.38
2023-02-02T20:30:59.915Z,100311.19
2023-02-02T20:33:28.324Z,100318.09
2023-02-02T20:35:57.225Z,100320.38
2023-02-02T20:38:30.066Z,100320.16
2023-02-02T20:40:59.316Z,100323.38
2023-02-02T20:43:27.792Z,100332.38
2023-02-02T20:45:56.277Z,100333.47
2023-02-02T20:48:25.809Z,100335.59
2023-02-02T20:50:54.342Z,100337.00
2023-02-02T20:53:23.110Z,100336.84
2023-02-02T20:55:57.388Z,100337.75
2023-02-02T20:58:26.552Z,100341.44
2023-02-02T21:00:55.129Z,100351.16
2023-02-02T21:03:23.688Z,100349.94
2023-02-02T21:05:52.140Z,100350.34
2023-02-02T21:08:20.574Z,100354.16
2023-02-02T21:10:48.973Z,100352.78
2023-02-02T21:13:18.860Z,100356.63
2023-02-02T21:15:47.272Z,100363.63
2023-02-02T21:18:15.910Z,100382.22
2023-02-02T21:20:44.365Z,100382.66
2023-02-02T21:23:12.784Z,100385.31
2023-02-02T21:25:41.361Z,100386.50
2023-02-02T21:28:09.689Z,100388.59
2023-02-02T21:30:39.826Z,100402.00
2023-02-02T21:33:08.402Z,100398.84
2023-02-02T21:35:36.809Z,100393.66
2023-02-02T21:38:11.835Z,100393.06
2023-02-02T21:40:41.133Z,100400.16
2023-02-02T21:43:15.864Z,100397.34
2023-02-02T21:45:49.782Z,100407.66
2023-02-02T21:48:42.124Z,100404.78
2023-02-02T21:51:23.085Z,100406.75
2023-02-02T21:53:51.814Z,100412.25
2023-02-02T21:56:27.535Z,100413.88
2023-02-02T21:58:59.496Z,100418.34
2023-02-02T22:01:34.985Z,100420.44
2023-02-02T22:04:03.562Z,100426.56
2023-02-02T22:06:36.277Z,100435.41
2023-02-02T22:09:15.755Z,100438.34
2023-02-02T22:11:49.158Z,100441.66
2023-02-02T22:14:28.607Z,100436.97
2023-02-02T22:17:00.400Z,100444.84
2023-02-02T22:19:32.935Z,100444.38
2023-02-02T22:22:20.363Z,100447.09
2023-02-02T22:24:57.740Z,100450.88
2023-02-02T22:27:28.586Z,100448.19
2023-02-02T22:30:12.205Z,100439.03
2023-02-02T22:32:42.248Z,100443.41
2023-02-02T22:35:10.716Z,100437.22
2023-02-02T22:37:39.197Z,100434.09
2023-02-02T22:40:08.701Z,100449.25
2023-02-02T22:42:37.538Z,100453.03
2023-02-02T22:45:06.983Z,100462.59
2023-02-02T22:47:35.619Z,100458.31
2023-02-02T22:50:06.122Z,100465.75
2023-02-02T22:52:34.829Z,100465.06
2023-02-02T22:55:03.392Z,100464.88
2023-02-02T22:57:31.982Z,100458.88
2023-02-02T23:00:00.441Z,100462.50
2023-02-02T23:02:29.003Z,100469.03
2023-02-02T23:04:57.491Z,100472.53
2023-02-02T23:07:27.636Z,100474.13
2023-02-02T23:09:56.190Z,100483.59
2023-02-02T23:12:24.777Z,100487.81
2023-02-02T23:14:53.307Z,100477.97
2023-02-02T23:17:21.903Z,100470.75
2023-02-02T23:19:50.381Z,100482.66
2023-02-02T23:22:18.881Z,100475.34
2023-02-02T23:24:49.094Z,100474.88
2023-02-02T23:27:17.589Z,100477.06
2023-02-02T23:29:45.984Z,100470.69
2023-02-02T23:32:14.506Z,100475.47
2023-02-02T23:34:43.054Z,100474.59
2023-02-02T23:37:11.743Z,100476.41
2023-02-02T23:39:40.322Z,100469.88
2023-02-02T23:42:10.591Z,100477.91
2023-02-02T23:44:39.137Z,100471.31
2023-02-02T23:47:08.251Z,100472.66
2023-02-02T23:49:37.438Z,100478.56
2023-02-02T23:52:06.396Z,100477.19
2023-02-02T23:54:35.431Z,100485.63
2023-02-02T23:57:04.302Z,100480.03
2023-02-02T23:59:34.364Z,100479.97
